createdAt,value
2018-12-20T00:01:52.062Z,0.20
2018-12-20T00:04:24.191Z,0.20
2018-12-20T00:06:58.143Z,0.10
2018-12-20T00:09:30.050Z,0.10
2018-12-20T00:12:01.906Z,0.10
2018-12-20T00:14:34.105Z,0.10
2018-12-20T00:17:12.322Z,0.00
2018-12-20T00:19:44.803Z,0.00
2018-12-20T00:22:19.370Z,0.00
2018-12-20T00:24:51.795Z,-0.10
2018-12-20T00:27:27.002Z,-0.10
2018-12-20T00:30:00.057Z,0.00
2018-12-20T00:32:35.093Z,0.00
2018-12-20T00:35:07.530Z,0.00
2018-12-20T00:37:43.192Z,0.10
2018-12-20T00:40:18.094Z,0.10
2018-12-20T00:42:53.164Z,0.00
2018-12-20T00:45:25.390Z,0.10
2018-12-20T00:48:00.036Z,0.10
2018-12-20T00:50:32.318Z,0.00
2018-12-20T00:53:04.528Z,0.00
2018-12-20T00:55:36.846Z,0.10
2018-12-20T00:58:23.031Z,0.10
2018-12-20T01:00:58.174Z,0.10
2018-12-20T01:03:35.046Z,0.10
2018-12-20T01:06:07.269Z,0.10
2018-12-20T01:08:41.985Z,0.20
2018-12-20T01:11:16.937Z,0.20
2018-12-20T01:13:51.890Z,0.20
2018-12-20T01:16:30.880Z,0.20
2018-12-20T01:19:03.254Z,0.20
2018-12-20T01:21:35.420Z,0.20
2018-12-20T01:24:10.191Z,0.30
2018-12-20T01:26:45.985Z,0.30
2018-12-20T01:29:24.832Z,0.30
2018-12-20T01:31:59.991Z,0.30
2018-12-20T01:34:36.728Z,0.30
2018-12-20T01:37:09.353Z,0.20
2018-12-20T01:39:41.416Z,0.30
2018-12-20T01:42:16.406Z,0.20
2018-12-20T01:44:53.445Z,0.10
2018-12-20T01:47:22.736Z,0.10
2018-12-20T01:49:54.809Z,0.00
2018-12-20T01:52:29.588Z,0.10
2018-12-20T01:55:06.234Z,0.20
2018-12-20T01:57:38.908Z,0.00
2018-12-20T02:00:14.201Z,0.00
2018-12-20T02:02:46.189Z,0.00
2018-12-20T02:05:20.962Z,0.10
2018-12-20T02:07:56.013Z,0.10
2018-12-20T02:10:30.833Z,0.10
2018-12-20T02:13:03.231Z,0.10
2018-12-20T02:15:35.118Z,0.10
2018-12-20T02:18:09.896Z,0.10
2018-12-20T02:20:42.314Z,0.10
2018-12-20T02:23:15.236Z,0.10
2018-12-20T02:25:50.805Z,0.10
2018-12-20T02:28:23.346Z,0.10
2018-12-20T02:30:55.636Z,0.10
2018-12-20T02:33:30.999Z,0.10
2018-12-20T02:36:03.297Z,0.10
2018-12-20T02:38:35.155Z,0.10
2018-12-20T02:41:09.827Z,0.10
2018-12-20T02:43:43.318Z,0.20
2018-12-20T02:46:15.355Z,0.20
2018-12-20T02:48:50.288Z,0.30
2018-12-20T02:51:22.805Z,0.20
2018-12-20T02:53:58.467Z,0.10
2018-12-20T02:56:31.401Z,0.10
2018-12-20T02:59:03.498Z,0.10
2018-12-20T03:01:36.464Z,0.10
2018-12-20T03:04:09.507Z,0.10
2018-12-20T03:06:41.880Z,0.00
2018-12-20T03:09:13.864Z,0.10
2018-12-20T03:11:48.521Z,0.10
2018-12-20T03:14:20.954Z,0.10
2018-12-20T03:16:52.934Z,0.10
2018-12-20T03:19:27.660Z,0.20
2018-12-20T03:22:00.477Z,0.20
2018-12-20T03:24:33.314Z,0.20
2018-12-20T03:27:05.639Z,0.20
2018-12-20T03:29:38.507Z,0.20
2018-12-20T03:32:14.036Z,0.40
2018-12-20T03:34:46.689Z,0.40
2018-12-20T03:37:18.873Z,0.40
2018-12-20T03:39:53.534Z,0.40
2018-12-20T03:42:25.841Z,0.50
2018-12-20T03:44:58.966Z,0.50
2018-12-20T03:47:30.844Z,0.60
2018-12-20T03:50:03.405Z,0.50
2018-12-20T03:52:35.986Z,0.60
2018-12-20T03:55:08.092Z,0.50
2018-12-20T03:57:40.051Z,0.50
2018-12-20T04:00:12.115Z,0.50
2018-12-20T04:02:44.505Z,0.50
2018-12-20T04:05:20.077Z,0.40
2018-12-20T04:07:55.723Z,0.40
2018-12-20T04:10:28.110Z,0.40
2018-12-20T04:13:00.508Z,0.40
2018-12-20T04:15:37.728Z,0.40
2018-12-20T04:18:09.648Z,0.40
2018-12-20T04:20:42.916Z,0.50
2018-12-20T04:23:15.529Z,0.40
2018-12-20T04:25:47.573Z,0.40
2018-12-20T04:28:23.544Z,0.40
2018-12-20T04:30:58.924Z,0.40
2018-12-20T04:33:33.918Z,0.40
2018-12-20T04:36:06.097Z,0.30
2018-12-20T04:38:38.855Z,0.30
2018-12-20T04:41:10.863Z,0.30
2018-12-20T04:43:43.188Z,0.20
2018-12-20T04:46:18.510Z,0.30
2018-12-20T04:48:50.790Z,0.30
2018-12-20T04:51:22.620Z,0.30
2018-12-20T04:53:57.492Z,0.30
2018-12-20T04:56:32.756Z,0.20
2018-12-20T04:59:04.994Z,0.20
2018-12-20T05:01:40.824Z,0.20
2018-12-20T05:04:13.366Z,0.30
2018-12-20T05:06:49.434Z,0.30
2018-12-20T05:09:25.549Z,0.30
2018-12-20T05:12:00.833Z,0.30
2018-12-20T05:14:33.150Z,0.30
2018-12-20T05:17:05.998Z,0.30
2018-12-20T05:19:40.885Z,0.30
2018-12-20T05:22:13.323Z,0.30
2018-12-20T05:24:45.182Z,0.40
2018-12-20T05:27:17.524Z,0.30
2018-12-20T05:29:49.520Z,0.40
2018-12-20T05:32:23.250Z,0.40
2018-12-20T05:34:56.428Z,0.40
2018-12-20T05:37:31.727Z,0.40
2018-12-20T05:40:08.914Z,0.50
2018-12-20T05:42:44.049Z,0.40
2018-12-20T05:45:16.624Z,0.50
2018-12-20T05:47:49.442Z,0.60
2018-12-20T05:50:21.330Z,0.50
2018-12-20T05:52:56.412Z,0.40
2018-12-20T05:55:28.821Z,0.40
2018-12-20T05:58:01.216Z,0.40
2018-12-20T06:00:36.130Z,0.50
2018-12-20T06:03:08.918Z,0.40
2018-12-20T06:05:43.864Z,0.40
2018-12-20T06:08:19.393Z,0.30
2018-12-20T06:10:52.123Z,0.40
2018-12-20T06:13:25.219Z,0.40
2018-12-20T06:15:58.914Z,0.40
2018-12-20T06:18:30.993Z,0.40
2018-12-20T06:21:06.043Z,0.40
2018-12-20T06:23:38.197Z,0.30
2018-12-20T06:26:10.406Z,0.30
2018-12-20T06:28:42.485Z,0.20
2018-12-20T06:31:14.614Z,0.30
2018-12-20T06:33:52.657Z,0.30
2018-12-20T06:36:25.042Z,0.30
2018-12-20T06:38:58.251Z,0.30
2018-12-20T06:41:28.637Z,0.60
2018-12-20T06:44:07.063Z,0.30
2018-12-20T06:46:36.818Z,0.30
2018-12-20T06:49:09.431Z,0.30
2018-12-20T06:51:44.277Z,0.40
2018-12-20T06:54:16.438Z,0.40
2018-12-20T06:56:48.527Z,0.40
2018-12-20T06:59:20.691Z,0.40
2018-12-20T07:01:52.604Z,0.40
2018-12-20T07:04:24.824Z,0.40
2018-12-20T07:06:59.920Z,0.40
2018-12-20T07:09:32.090Z,0.50
2018-12-20T07:12:07.161Z,0.50
2018-12-20T07:14:40.647Z,0.50
2018-12-20T07:17:15.361Z,0.50
2018-12-20T07:19:50.634Z,0.50
2018-12-20T07:22:22.893Z,0.50
2018-12-20T07:24:55.050Z,0.50
2018-12-20T07:27:30.152Z,0.60
2018-12-20T07:30:02.270Z,0.60
2018-12-20T07:32:37.825Z,0.60
2018-12-20T07:35:10.412Z,0.60
2018-12-20T07:37:42.713Z,0.60
2018-12-20T07:40:14.598Z,0.60
2018-12-20T07:42:46.514Z,0.60
2018-12-20T07:45:21.342Z,0.60
2018-12-20T07:47:58.305Z,0.50
2018-12-20T07:50:31.694Z,0.60
2018-12-20T07:53:04.335Z,0.50
2018-12-20T07:55:36.607Z,0.60
2018-12-20T07:58:15.304Z,0.60
2018-12-20T08:00:48.806Z,0.60
2018-12-20T08:03:20.629Z,0.60
2018-12-20T08:05:55.833Z,0.60
2018-12-20T08:08:28.399Z,0.60
2018-12-20T08:11:00.299Z,0.60
2018-12-20T08:13:32.315Z,0.50
2018-12-20T08:16:07.174Z,0.60
2018-12-20T08:18:43.379Z,0.70
2018-12-20T08:21:22.602Z,0.70
2018-12-20T08:23:54.990Z,0.70
2018-12-20T08:26:27.948Z,0.60
2018-12-20T08:29:02.938Z,0.60
2018-12-20T08:31:35.336Z,0.60
2018-12-20T08:34:07.317Z,0.70
2018-12-20T08:36:39.593Z,0.70
2018-12-20T08:39:12.217Z,0.70
2018-12-20T08:41:48.816Z,0.70
2018-12-20T08:44:23.619Z,0.80
2018-12-20T08:47:12.083Z,0.80
2018-12-20T08:49:47.392Z,0.80
2018-12-20T08:52:22.820Z,0.80
2018-12-20T08:54:55.227Z,0.80
2018-12-20T08:57:30.103Z,0.80
2018-12-20T09:00:09.428Z,0.70
2018-12-20T09:02:42.573Z,0.80
2018-12-20T09:05:17.322Z,0.80
2018-12-20T09:07:49.575Z,0.80
2018-12-20T09:10:24.243Z,0.80
2018-12-20T09:12:56.539Z,0.80
2018-12-20T09:15:31.863Z,0.80
2018-12-20T09:18:07.454Z,0.80
2018-12-20T09:20:40.017Z,0.90
2018-12-20T09:23:14.846Z,0.80
2018-12-20T09:25:47.456Z,0.80
2018-12-20T09:28:22.319Z,0.80
2018-12-20T09:30:57.408Z,0.80
2018-12-20T09:33:29.700Z,0.80
2018-12-20T09:36:01.856Z,0.80
2018-12-20T09:38:34.438Z,0.80
2018-12-20T09:41:06.606Z,0.70
2018-12-20T09:43:38.650Z,0.80
2018-12-20T09:46:11.011Z,0.80
2018-12-20T09:48:46.395Z,0.90
2018-12-20T09:51:21.368Z,0.90
2018-12-20T09:53:53.874Z,0.90
2018-12-20T09:56:28.532Z,0.80
2018-12-20T09:59:00.822Z,0.70
2018-12-20T10:01:33.028Z,0.70
2018-12-20T10:04:13.750Z,0.70
2018-12-20T10:06:46.392Z,0.80
2018-12-20T10:09:18.620Z,0.90
2018-12-20T10:11:56.899Z,0.90
2018-12-20T10:14:28.901Z,0.90
2018-12-20T10:17:04.827Z,0.90
2018-12-20T10:19:37.093Z,0.90
2018-12-20T10:22:09.032Z,0.90
2018-12-20T10:24:41.141Z,0.90
2018-12-20T10:27:16.125Z,0.90
2018-12-20T10:29:51.166Z,1.00
2018-12-20T10:32:27.401Z,1.10
2018-12-20T10:34:59.825Z,1.20
2018-12-20T10:37:34.744Z,1.20
2018-12-20T10:40:09.690Z,1.20
2018-12-20T10:42:42.293Z,1.30
2018-12-20T10:45:14.674Z,1.30
2018-12-20T10:47:46.454Z,1.40
2018-12-20T10:50:22.769Z,1.40
2018-12-20T10:52:54.746Z,1.50
2018-12-20T10:55:30.178Z,1.50
2018-12-20T10:58:05.639Z,1.50
2018-12-20T11:00:44.875Z,1.50
2018-12-20T11:03:23.126Z,1.50
2018-12-20T11:06:01.518Z,1.50
2018-12-20T11:08:35.521Z,1.50
2018-12-20T11:11:10.190Z,1.60
2018-12-20T11:13:42.882Z,1.60
2018-12-20T11:16:15.242Z,1.60
2018-12-20T11:18:50.979Z,1.70
2018-12-20T11:21:23.598Z,1.70
2018-12-20T11:23:57.992Z,1.60
2018-12-20T11:26:30.432Z,1.60
2018-12-20T11:29:09.604Z,1.60
2018-12-20T11:31:42.015Z,1.60
2018-12-20T11:34:14.398Z,1.60
2018-12-20T11:36:50.253Z,1.60
2018-12-20T11:39:24.927Z,1.60
2018-12-20T11:41:57.074Z,1.60
2018-12-20T11:44:31.753Z,1.60
2018-12-20T11:47:08.730Z,1.70
2018-12-20T11:49:41.556Z,1.60
2018-12-20T11:52:13.337Z,1.60
2018-12-20T11:54:48.020Z,1.60
2018-12-20T11:57:20.432Z,1.70
2018-12-20T11:59:55.064Z,1.70
2018-12-20T12:02:28.044Z,1.80
2018-12-20T12:05:04.443Z,1.90
2018-12-20T12:07:39.790Z,1.90
2018-12-20T12:10:12.956Z,2.00
2018-12-20T12:12:45.885Z,2.10
2018-12-20T12:15:18.284Z,2.10
2018-12-20T12:17:54.407Z,2.10
2018-12-20T12:20:27.370Z,2.00
2018-12-20T12:23:03.946Z,1.90
2018-12-20T12:25:43.273Z,1.70
2018-12-20T12:28:18.492Z,1.70
2018-12-20T12:30:53.357Z,1.70
2018-12-20T12:33:26.785Z,1.60
2018-12-20T12:35:58.912Z,1.50
2018-12-20T12:38:30.896Z,1.40
2018-12-20T12:41:02.878Z,1.30
2018-12-20T12:43:34.971Z,1.20
2018-12-20T12:46:09.764Z,1.10
2018-12-20T12:48:41.987Z,1.10
2018-12-20T12:51:17.183Z,1.10
2018-12-20T12:53:52.031Z,1.10
2018-12-20T12:56:25.103Z,1.00
2018-12-20T12:58:57.695Z,1.00
2018-12-20T13:01:32.423Z,1.00
2018-12-20T13:04:08.182Z,1.00
2018-12-20T13:06:43.652Z,0.90
2018-12-20T13:09:20.504Z,0.90
2018-12-20T13:11:55.060Z,0.90
2018-12-20T13:14:28.372Z,0.90
2018-12-20T13:17:10.119Z,0.90
2018-12-20T13:19:42.791Z,0.90
2018-12-20T13:22:18.040Z,0.90
2018-12-20T13:24:52.766Z,0.90
2018-12-20T13:27:25.128Z,0.90
2018-12-20T13:29:57.935Z,0.80
2018-12-20T13:32:30.685Z,0.80
2018-12-20T13:35:02.594Z,0.60
2018-12-20T13:37:38.525Z,0.60
2018-12-20T13:40:10.731Z,0.50
2018-12-20T13:42:43.857Z,0.60
2018-12-20T13:45:15.979Z,0.50
2018-12-20T13:47:51.177Z,0.50
2018-12-20T13:50:23.147Z,0.40
2018-12-20T13:52:55.404Z,0.50
2018-12-20T13:55:27.494Z,0.50
2018-12-20T13:57:59.810Z,0.40
2018-12-20T14:00:33.966Z,0.50
2018-12-20T14:03:09.266Z,0.40
2018-12-20T14:05:44.117Z,0.40
2018-12-20T14:08:19.273Z,0.40
2018-12-20T14:10:55.323Z,0.50
2018-12-20T14:13:27.580Z,0.40
2018-12-20T14:16:00.104Z,0.30
2018-12-20T14:18:32.847Z,0.30
2018-12-20T14:21:04.807Z,0.30
2018-12-20T14:23:37.931Z,0.30
2018-12-20T14:26:09.714Z,0.20
2018-12-20T14:28:41.636Z,0.20
2018-12-20T14:31:17.489Z,0.20
2018-12-20T14:33:52.636Z,0.30
2018-12-20T14:36:30.645Z,0.20
2018-12-20T14:39:03.920Z,0.20
2018-12-20T14:41:36.980Z,0.30
2018-12-20T14:44:12.407Z,0.20
2018-12-20T14:46:47.751Z,0.20
2018-12-20T14:49:20.681Z,0.20
2018-12-20T14:52:00.893Z,0.10
2018-12-20T14:54:36.627Z,0.20
2018-12-20T14:57:12.779Z,0.10
2018-12-20T14:59:51.916Z,0.10
2018-12-20T15:02:26.886Z,0.10
2018-12-20T15:05:01.794Z,0.10
2018-12-20T15:07:42.963Z,0.00
2018-12-20T15:10:14.910Z,0.00
2018-12-20T15:12:46.829Z,0.00
2018-12-20T15:15:19.051Z,-0.10
2018-12-20T15:18:01.296Z,-0.10
2018-12-20T15:20:40.514Z,-0.20
2018-12-20T15:23:09.042Z,-0.20
2018-12-20T15:25:44.559Z,-0.20
2018-12-20T15:28:19.219Z,-0.20
2018-12-20T15:30:54.387Z,-0.20
2018-12-20T15:33:33.707Z,-0.30
2018-12-20T15:36:09.215Z,-0.30
2018-12-20T15:38:42.446Z,-0.30
2018-12-20T15:44:15.786Z,-0.20
2018-12-20T15:46:57.223Z,-0.20
2018-12-20T15:49:29.961Z,-0.20
2018-12-20T15:52:04.801Z,-0.20
2018-12-20T15:54:39.701Z,-0.30
2018-12-20T15:57:12.027Z,-0.30
2018-12-20T15:59:45.529Z,-0.30
2018-12-20T16:02:18.252Z,-0.30
2018-12-20T16:04:51.185Z,-0.40
2018-12-20T16:07:23.392Z,-0.40
2018-12-20T16:09:56.302Z,-0.40
2018-12-20T16:12:33.460Z,-0.40
2018-12-20T16:15:06.432Z,-0.40
2018-12-20T16:17:38.742Z,-0.40
2018-12-20T16:20:11.460Z,-0.40
2018-12-20T16:22:46.654Z,-0.40
2018-12-20T16:25:19.178Z,-0.40
2018-12-20T16:27:51.288Z,-0.40
2018-12-20T16:30:23.734Z,-0.40
2018-12-20T16:32:55.567Z,-0.40
2018-12-20T16:35:28.771Z,-0.50
2018-12-20T16:38:07.003Z,-0.50
2018-12-20T16:40:43.750Z,-0.50
2018-12-20T16:43:18.970Z,-0.40
2018-12-20T16:45:55.565Z,-0.40
2018-12-20T16:48:28.880Z,-0.50
2018-12-20T16:51:01.597Z,-0.50
2018-12-20T16:53:36.337Z,-0.40
2018-12-20T16:56:11.457Z,-0.40
2018-12-20T16:58:46.423Z,-0.40
2018-12-20T17:01:19.857Z,-0.40
2018-12-20T17:03:53.031Z,-0.40
2018-12-20T17:06:27.874Z,-0.40
2018-12-20T17:09:02.848Z,-0.40
2018-12-20T17:11:37.727Z,-0.50
2018-12-20T17:14:18.266Z,-0.50
2018-12-20T17:16:50.823Z,-0.50
2018-12-20T17:19:22.609Z,-0.50
2018-12-20T17:21:54.975Z,-0.60
2018-12-20T17:24:26.962Z,-0.60
2018-12-20T17:27:01.818Z,-0.60
2018-12-20T17:29:34.033Z,-0.60
2018-12-20T17:32:08.994Z,-0.60
2018-12-20T17:34:41.061Z,-0.60
2018-12-20T17:37:15.630Z,-0.60
2018-12-20T17:39:50.662Z,-0.70
2018-12-20T17:42:24.100Z,-0.60
2018-12-20T17:44:59.100Z,-0.60
2018-12-20T17:47:31.934Z,-0.70
2018-12-20T17:50:06.411Z,-0.70
2018-12-20T17:52:41.530Z,-0.70
2018-12-20T17:55:14.294Z,-0.70
2018-12-20T17:57:47.965Z,-0.60
2018-12-20T18:00:27.992Z,-0.60
2018-12-20T18:03:03.007Z,-0.70
2018-12-20T18:05:40.278Z,-0.70
2018-12-20T18:08:12.493Z,-0.70
2018-12-20T18:10:49.649Z,-0.70
2018-12-20T18:13:26.724Z,-0.70
2018-12-20T18:15:59.961Z,-0.70
2018-12-20T18:18:40.145Z,-0.80
2018-12-20T18:21:16.207Z,-0.80
2018-12-20T18:23:52.079Z,-0.80
2018-12-20T18:26:27.491Z,-0.70
2018-12-20T18:29:02.971Z,-0.80
2018-12-20T18:31:36.876Z,-0.70
2018-12-20T18:34:12.364Z,-0.80
2018-12-20T18:36:48.532Z,-0.80
2018-12-20T18:39:26.343Z,-0.80
2018-12-20T18:42:03.213Z,-0.80
2018-12-20T18:44:37.400Z,-0.80
2018-12-20T18:47:13.796Z,-0.70
2018-12-20T18:49:49.312Z,-0.70
2018-12-20T18:52:22.820Z,-0.70
2018-12-20T18:54:57.949Z,-0.80
2018-12-20T18:57:34.061Z,-0.80
2018-12-20T19:00:09.257Z,-0.90
2018-12-20T19:02:44.308Z,-0.90
2018-12-20T19:05:17.739Z,-1.00
2018-12-20T19:07:50.402Z,-1.00
2018-12-20T19:10:23.039Z,-1.00
2018-12-20T19:12:57.883Z,-1.00
2018-12-20T19:15:30.130Z,-1.00
2018-12-20T19:18:02.405Z,-1.00
2018-12-20T19:20:37.378Z,-1.00
2018-12-20T19:23:10.257Z,-0.90
2018-12-20T19:25:45.337Z,-0.90
2018-12-20T19:28:21.103Z,-0.80
2018-12-20T19:30:56.607Z,-0.90
2018-12-20T19:33:29.410Z,-0.80
2018-12-20T19:36:02.075Z,-0.80
2018-12-20T19:38:35.077Z,-0.80
2018-12-20T19:41:07.702Z,-0.80
2018-12-20T19:43:43.724Z,-0.80
2018-12-20T19:46:23.028Z,-0.80
2018-12-20T19:48:55.711Z,-0.80
2018-12-20T19:51:27.587Z,-0.80
2018-12-20T19:54:03.209Z,-0.80
2018-12-20T19:56:35.221Z,-0.90
2018-12-20T19:59:07.246Z,-0.90
2018-12-20T20:01:39.820Z,-0.90
2018-12-20T20:04:11.691Z,-0.90
2018-12-20T20:06:44.778Z,-0.90
2018-12-20T20:09:17.074Z,-1.00
2018-12-20T20:11:49.782Z,-1.00
2018-12-20T20:14:22.127Z,-0.90
2018-12-20T20:16:54.252Z,-0.90
2018-12-20T20:19:29.481Z,-0.90
2018-12-20T20:22:02.335Z,-0.90
2018-12-20T20:24:36.056Z,-0.90
2018-12-20T20:27:15.542Z,-1.00
2018-12-20T20:29:47.654Z,-1.00
2018-12-20T20:32:22.471Z,-1.00
2018-12-20T20:34:57.649Z,-1.00
2018-12-20T20:37:30.631Z,-1.00
2018-12-20T20:40:03.187Z,-1.00
2018-12-20T20:42:35.320Z,-1.00
2018-12-20T20:45:07.573Z,-1.00
2018-12-20T20:47:41.483Z,-1.00
2018-12-20T20:50:22.359Z,-1.00
2018-12-20T20:52:55.048Z,-1.00
2018-12-20T20:55:27.287Z,-1.00
2018-12-20T20:58:02.145Z,-1.00
2018-12-20T21:00:35.677Z,-0.90
2018-12-20T21:03:07.590Z,-0.90
2018-12-20T21:05:39.636Z,-0.90
2018-12-20T21:08:14.239Z,-1.00
2018-12-20T21:10:46.365Z,-1.00
2018-12-20T21:13:20.946Z,-1.00
2018-12-20T21:15:58.034Z,-1.00
2018-12-20T21:18:30.208Z,-1.00
2018-12-20T21:21:04.218Z,-0.90
2018-12-20T21:23:39.897Z,-1.00
2018-12-20T21:26:12.318Z,-1.00
2018-12-20T21:28:45.338Z,-1.00
2018-12-20T21:31:17.808Z,-1.00
2018-12-20T21:33:49.599Z,-0.90
2018-12-20T21:36:24.969Z,-1.00
2018-12-20T21:38:58.336Z,-0.90
2018-12-20T21:41:33.986Z,-0.90
2018-12-20T21:44:06.036Z,-1.00
2018-12-20T21:46:38.266Z,-0.90
2018-12-20T21:52:22.622Z,-1.00
2018-12-20T21:54:55.214Z,-1.00
2018-12-20T21:57:27.612Z,-1.00
2018-12-20T22:00:03.877Z,-1.00
2018-12-20T22:02:39.100Z,-0.90
2018-12-20T22:05:12.450Z,-1.00
2018-12-20T22:07:44.616Z,-1.00
2018-12-20T22:10:20.699Z,-1.00
2018-12-20T22:12:57.173Z,-1.00
2018-12-20T22:15:33.177Z,-1.00
2018-12-20T22:18:09.419Z,-1.10
2018-12-20T22:20:47.211Z,-1.00
2018-12-20T22:23:16.654Z,-1.10
2018-12-20T22:25:51.562Z,-1.10
2018-12-20T22:28:26.764Z,-1.00
2018-12-20T22:31:02.845Z,-1.00
2018-12-20T22:33:35.138Z,-1.10
2018-12-20T22:36:09.944Z,-1.10
2018-12-20T22:38:42.395Z,-1.00
2018-12-20T22:41:19.557Z,-1.10
2018-12-20T22:43:51.987Z,-1.10
2018-12-20T22:46:24.725Z,-1.10
2018-12-20T22:49:01.393Z,-1.10
2018-12-20T22:51:33.907Z,-1.10
2018-12-20T22:54:10.758Z,-1.10
2018-12-20T22:56:46.008Z,-1.10
2018-12-20T22:59:27.097Z,-1.10
2018-12-20T23:02:03.059Z,-1.10
2018-12-20T23:04:34.896Z,-1.10
2018-12-20T23:07:07.007Z,-1.10
2018-12-20T23:09:41.574Z,-1.10
2018-12-20T23:12:14.108Z,-1.10
2018-12-20T23:14:46.569Z,-1.00
2018-12-20T23:17:18.686Z,-1.10
2018-12-20T23:19:53.775Z,-1.10
2018-12-20T23:22:28.877Z,-1.00
2018-12-20T23:25:04.167Z,-1.00
2018-12-20T23:27:43.218Z,-1.00
2018-12-20T23:32:52.193Z,-1.00
2018-12-20T23:35:24.697Z,-1.00
2018-12-20T23:37:56.560Z,-1.10
2018-12-20T23:40:32.642Z,-1.00
2018-12-20T23:43:05.625Z,-1.00
2018-12-20T23:45:40.179Z,-1.00
2018-12-20T23:48:13.482Z,-1.00
2018-12-20T23:50:45.532Z,-1.00
2018-12-20T23:53:20.301Z,-1.10
2018-12-20T23:55:52.884Z,-1.10
2018-12-20T23:58:27.850Z,-1.10
